Heath, Montana
Current Conditions -  °F | °C
As of 7:54 PM on Thursday 27 Nov 2014 (Local Time) from KLWT Reporting Station
Scattered Clouds Scattered Clouds  
Wind Chill: 37°   Ceiling: Unl
Heat Index: 43°   Visibility: 10mi
Dew Point: 32°   Wind: 10mph
Humidity: 65%   Direction: 240°WSW
Pressure: 29.75"   Gusts: NA
Location:  46.9245°N, 109.389°W
Report Text: KLWT 280254Z AUTO 24009KT 10SM SCT095 06/00 A2975 RMK AO2 SLP076 T00610000 56012
Loading
Personal Weather Stations






























Interactive Weather Map New forecast layout! Learn more

10-Day Weather Forecast

Advertisements
Track Severe Weather on mobile